sensor_id;sensor_type;location;lat;lon;timestamp;temperature;humidity
66140;DHT22;52945;51.908;8.364;2022-11-15T00:00:44;11.80;63.60
66140;DHT22;52945;51.908;8.364;2022-11-15T00:03:45;11.80;63.70
66140;DHT22;52945;51.908;8.364;2022-11-15T00:06:46;11.80;63.90
66140;DHT22;52945;51.908;8.364;2022-11-15T00:09:46;11.80;63.90
66140;DHT22;52945;51.908;8.364;2022-11-15T00:12:47;11.80;64.00
66140;DHT22;52945;51.908;8.364;2022-11-15T00:15:47;11.80;64.10
66140;DHT22;52945;51.908;8.364;2022-11-15T00:18:48;11.80;64.10
66140;DHT22;52945;51.908;8.364;2022-11-15T00:21:49;11.80;64.40
66140;DHT22;52945;51.908;8.364;2022-11-15T00:24:49;11.90;64.50
66140;DHT22;52945;51.908;8.364;2022-11-15T00:27:50;11.90;64.40
66140;DHT22;52945;51.908;8.364;2022-11-15T00:30:52;11.90;64.40
66140;DHT22;52945;51.908;8.364;2022-11-15T00:33:52;11.90;64.30
66140;DHT22;52945;51.908;8.364;2022-11-15T00:36:53;12.00;64.50
66140;DHT22;52945;51.908;8.364;2022-11-15T00:39:53;12.00;64.50
66140;DHT22;52945;51.908;8.364;2022-11-15T00:42:54;12.00;64.80
66140;DHT22;52945;51.908;8.364;2022-11-15T00:45:55;12.00;65.00
66140;DHT22;52945;51.908;8.364;2022-11-15T00:48:55;12.10;64.80
66140;DHT22;52945;51.908;8.364;2022-11-15T00:51:56;12.10;64.90
66140;DHT22;52945;51.908;8.364;2022-11-15T00:54:56;12.10;65.00
66140;DHT22;52945;51.908;8.364;2022-11-15T00:57:57;12.10;64.90
66140;DHT22;52945;51.908;8.364;2022-11-15T01:01:09;12.20;64.90
66140;DHT22;52945;51.908;8.364;2022-11-15T01:04:10;12.20;64.90
66140;DHT22;52945;51.908;8.364;2022-11-15T01:07:10;12.20;65.10
66140;DHT22;52945;51.908;8.364;2022-11-15T01:10:11;12.20;65.30
66140;DHT22;52945;51.908;8.364;2022-11-15T01:13:12;12.20;65.20
66140;DHT22;52945;51.908;8.364;2022-11-15T01:16:17;12.20;65.50
66140;DHT22;52945;51.908;8.364;2022-11-15T01:19:18;12.30;65.80
66140;DHT22;52945;51.908;8.364;2022-11-15T01:22:19;12.30;65.90
66140;DHT22;52945;51.908;8.364;2022-11-15T01:25:19;12.30;66.20
66140;DHT22;52945;51.908;8.364;2022-11-15T01:28:20;12.30;66.40
66140;DHT22;52945;51.908;8.364;2022-11-15T01:31:21;12.30;66.70
66140;DHT22;52945;51.908;8.364;2022-11-15T01:34:22;12.40;66.80
66140;DHT22;52945;51.908;8.364;2022-11-15T01:37:22;12.40;67.00
66140;DHT22;52945;51.908;8.364;2022-11-15T01:40:23;12.40;67.00
66140;DHT22;52945;51.908;8.364;2022-11-15T01:46:32;12.50;67.00
66140;DHT22;52945;51.908;8.364;2022-11-15T01:49:35;12.40;67.60
66140;DHT22;52945;51.908;8.364;2022-11-15T01:52:39;12.50;67.90
66140;DHT22;52945;51.908;8.364;2022-11-15T01:55:40;12.40;68.20
66140;DHT22;52945;51.908;8.364;2022-11-15T01:58:42;12.40;68.40
66140;DHT22;52945;51.908;8.364;2022-11-15T02:01:43;12.50;68.40
66140;DHT22;52945;51.908;8.364;2022-11-15T02:04:46;12.50;68.30
66140;DHT22;52945;51.908;8.364;2022-11-15T02:07:47;12.60;68.20
66140;DHT22;52945;51.908;8.364;2022-11-15T02:10:48;12.50;68.40
66140;DHT22;52945;51.908;8.364;2022-11-15T02:13:49;12.50;68.70
66140;DHT22;52945;51.908;8.364;2022-11-15T02:17:07;12.50;68.90
66140;DHT22;52945;51.908;8.364;2022-11-15T02:23:40;12.60;69.30
66140;DHT22;52945;51.908;8.364;2022-11-15T02:27:27;12.60;69.40
66140;DHT22;52945;51.908;8.364;2022-11-15T02:37:10;12.70;70.00
66140;DHT22;52945;51.908;8.364;2022-11-15T02:43:35;12.70;70.40
66140;DHT22;52945;51.908;8.364;2022-11-15T02:46:59;12.70;70.50
66140;DHT22;52945;51.908;8.364;2022-11-15T02:50:16;12.80;70.60
66140;DHT22;52945;51.908;8.364;2022-11-15T02:53:17;12.70;70.70
66140;DHT22;52945;51.908;8.364;2022-11-15T02:56:18;12.80;71.00
66140;DHT22;52945;51.908;8.364;2022-11-15T02:59:37;12.80;71.40
66140;DHT22;52945;51.908;8.364;2022-11-15T03:06:39;12.90;71.80
66140;DHT22;52945;51.908;8.364;2022-11-15T03:10:12;12.90;71.80
66140;DHT22;52945;51.908;8.364;2022-11-15T03:13:26;12.90;71.80
66140;DHT22;52945;51.908;8.364;2022-11-15T03:17:03;13.00;71.60
66140;DHT22;52945;51.908;8.364;2022-11-15T03:20:08;13.00;71.30
66140;DHT22;52945;51.908;8.364;2022-11-15T03:23:10;13.00;71.60
66140;DHT22;52945;51.908;8.364;2022-11-15T03:26:13;13.00;71.70
66140;DHT22;52945;51.908;8.364;2022-11-15T03:29:24;13.10;71.70
66140;DHT22;52945;51.908;8.364;2022-11-15T03:32:28;13.10;71.90
66140;DHT22;52945;51.908;8.364;2022-11-15T03:35:38;13.10;71.80
66140;DHT22;52945;51.908;8.364;2022-11-15T03:38:41;13.20;71.70
66140;DHT22;52945;51.908;8.364;2022-11-15T03:41:48;13.20;71.60
66140;DHT22;52945;51.908;8.364;2022-11-15T03:48:13;13.20;71.70
66140;DHT22;52945;51.908;8.364;2022-11-15T03:51:15;13.20;71.60
66140;DHT22;52945;51.908;8.364;2022-11-15T03:54:16;13.20;71.60
66140;DHT22;52945;51.908;8.364;2022-11-15T03:57:16;13.20;71.60
66140;DHT22;52945;51.908;8.364;2022-11-15T04:00:17;13.20;71.60
66140;DHT22;52945;51.908;8.364;2022-11-15T04:03:18;13.20;71.60
66140;DHT22;52945;51.908;8.364;2022-11-15T04:06:18;13.20;71.80
66140;DHT22;52945;51.908;8.364;2022-11-15T04:09:19;13.20;71.70
66140;DHT22;52945;51.908;8.364;2022-11-15T04:12:20;13.20;71.60
66140;DHT22;52945;51.908;8.364;2022-11-15T04:15:30;13.20;71.80
66140;DHT22;52945;51.908;8.364;2022-11-15T04:18:31;13.20;72.00
66140;DHT22;52945;51.908;8.364;2022-11-15T04:21:32;13.20;72.00
66140;DHT22;52945;51.908;8.364;2022-11-15T04:24:51;13.30;71.80
66140;DHT22;52945;51.908;8.364;2022-11-15T04:27:51;13.30;71.80
66140;DHT22;52945;51.908;8.364;2022-11-15T04:30:52;13.30;71.70
66140;DHT22;52945;51.908;8.364;2022-11-15T04:33:53;13.30;71.70
66140;DHT22;52945;51.908;8.364;2022-11-15T04:36:53;13.30;71.90
66140;DHT22;52945;51.908;8.364;2022-11-15T04:40:12;13.30;71.90
66140;DHT22;52945;51.908;8.364;2022-11-15T04:43:13;13.30;71.80
66140;DHT22;52945;51.908;8.364;2022-11-15T04:46:13;13.30;71.80
66140;DHT22;52945;51.908;8.364;2022-11-15T04:49:14;13.30;71.80
66140;DHT22;52945;51.908;8.364;2022-11-15T04:52:14;13.30;71.70
66140;DHT22;52945;51.908;8.364;2022-11-15T04:55:15;13.40;71.80
66140;DHT22;52945;51.908;8.364;2022-11-15T04:58:16;13.30;71.80
66140;DHT22;52945;51.908;8.364;2022-11-15T05:01:17;13.30;71.90
66140;DHT22;52945;51.908;8.364;2022-11-15T05:04:17;13.30;71.80
66140;DHT22;52945;51.908;8.364;2022-11-15T05:07:21;13.30;71.60
66140;DHT22;52945;51.908;8.364;2022-11-15T05:10:21;13.40;71.50
66140;DHT22;52945;51.908;8.364;2022-11-15T05:13:22;13.40;71.50
66140;DHT22;52945;51.908;8.364;2022-11-15T05:16:22;13.30;71.50
66140;DHT22;52945;51.908;8.364;2022-11-15T05:19:23;13.30;71.50
66140;DHT22;52945;51.908;8.364;2022-11-15T05:22:23;13.30;71.70
66140;DHT22;52945;51.908;8.364;2022-11-15T05:25:24;13.30;71.80
66140;DHT22;52945;51.908;8.364;2022-11-15T05:28:25;13.30;71.80
66140;DHT22;52945;51.908;8.364;2022-11-15T05:31:26;13.30;71.90
66140;DHT22;52945;51.908;8.364;2022-11-15T05:34:27;13.30;72.00
66140;DHT22;52945;51.908;8.364;2022-11-15T05:37:28;13.30;72.00
66140;DHT22;52945;51.908;8.364;2022-11-15T05:40:30;13.40;71.90
66140;DHT22;52945;51.908;8.364;2022-11-15T05:43:34;13.40;71.80
66140;DHT22;52945;51.908;8.364;2022-11-15T05:46:36;13.40;72.00
66140;DHT22;52945;51.908;8.364;2022-11-15T05:49:41;13.30;72.10
66140;DHT22;52945;51.908;8.364;2022-11-15T05:52:43;13.30;72.20
66140;DHT22;52945;51.908;8.364;2022-11-15T05:55:44;13.30;71.90
66140;DHT22;52945;51.908;8.364;2022-11-15T05:58:45;13.30;72.00
66140;DHT22;52945;51.908;8.364;2022-11-15T06:01:46;13.30;72.10
66140;DHT22;52945;51.908;8.364;2022-11-15T06:04:47;13.30;72.00
66140;DHT22;52945;51.908;8.364;2022-11-15T06:07:47;13.30;71.90
66140;DHT22;52945;51.908;8.364;2022-11-15T06:10:48;13.40;71.80
66140;DHT22;52945;51.908;8.364;2022-11-15T06:13:48;13.40;71.70
66140;DHT22;52945;51.908;8.364;2022-11-15T06:16:49;13.40;71.70
66140;DHT22;52945;51.908;8.364;2022-11-15T06:19:49;13.40;71.80
66140;DHT22;52945;51.908;8.364;2022-11-15T06:22:50;13.40;71.60
66140;DHT22;52945;51.908;8.364;2022-11-15T06:25:50;13.40;71.60
66140;DHT22;52945;51.908;8.364;2022-11-15T06:28:51;13.40;71.60
66140;DHT22;52945;51.908;8.364;2022-11-15T06:31:51;13.40;71.50
66140;DHT22;52945;51.908;8.364;2022-11-15T06:34:53;13.50;71.60
66140;DHT22;52945;51.908;8.364;2022-11-15T06:37:53;13.40;71.50
66140;DHT22;52945;51.908;8.364;2022-11-15T06:40:54;13.40;71.60
66140;DHT22;52945;51.908;8.364;2022-11-15T06:43:54;13.50;71.60
66140;DHT22;52945;51.908;8.364;2022-11-15T06:46:55;13.50;71.60
66140;DHT22;52945;51.908;8.364;2022-11-15T06:49:55;13.50;71.60
66140;DHT22;52945;51.908;8.364;2022-11-15T06:53:01;13.50;71.70
66140;DHT22;52945;51.908;8.364;2022-11-15T06:56:03;13.50;71.80
66140;DHT22;52945;51.908;8.364;2022-11-15T06:59:04;13.60;71.70
66140;DHT22;52945;51.908;8.364;2022-11-15T07:02:05;13.60;71.60
66140;DHT22;52945;51.908;8.364;2022-11-15T07:05:06;13.70;71.50
66140;DHT22;52945;51.908;8.364;2022-11-15T07:08:07;13.70;71.50
66140;DHT22;52945;51.908;8.364;2022-11-15T07:11:08;13.70;71.40
66140;DHT22;52945;51.908;8.364;2022-11-15T07:14:09;13.70;71.30
66140;DHT22;52945;51.908;8.364;2022-11-15T07:17:09;13.70;71.30
66140;DHT22;52945;51.908;8.364;2022-11-15T07:20:11;13.70;71.20
66140;DHT22;52945;51.908;8.364;2022-11-15T07:23:13;13.70;71.30
66140;DHT22;52945;51.908;8.364;2022-11-15T07:26:14;13.70;71.20
66140;DHT22;52945;51.908;8.364;2022-11-15T07:29:14;13.70;71.20
66140;DHT22;52945;51.908;8.364;2022-11-15T07:32:15;13.80;71.10
66140;DHT22;52945;51.908;8.364;2022-11-15T07:35:15;13.80;71.10
66140;DHT22;52945;51.908;8.364;2022-11-15T07:38:16;13.80;71.00
66140;DHT22;52945;51.908;8.364;2022-11-15T07:41:20;13.90;71.10
66140;DHT22;52945;51.908;8.364;2022-11-15T07:44:20;13.90;71.20
66140;DHT22;52945;51.908;8.364;2022-11-15T07:47:21;13.90;71.20
66140;DHT22;52945;51.908;8.364;2022-11-15T07:50:25;14.00;71.20
66140;DHT22;52945;51.908;8.364;2022-11-15T07:53:25;14.00;71.10
66140;DHT22;52945;51.908;8.364;2022-11-15T07:56:26;14.10;71.20
66140;DHT22;52945;51.908;8.364;2022-11-15T07:59:27;14.10;71.20
66140;DHT22;52945;51.908;8.364;2022-11-15T08:02:27;14.10;71.20
66140;DHT22;52945;51.908;8.364;2022-11-15T08:05:28;14.20;71.20
66140;DHT22;52945;51.908;8.364;2022-11-15T08:08:28;14.20;71.50
66140;DHT22;52945;51.908;8.364;2022-11-15T08:11:29;14.40;71.50
66140;DHT22;52945;51.908;8.364;2022-11-15T08:14:29;14.70;71.20
66140;DHT22;52945;51.908;8.364;2022-11-15T08:17:30;15.10;70.00
66140;DHT22;52945;51.908;8.364;2022-11-15T08:20:33;15.50;68.70
66140;DHT22;52945;51.908;8.364;2022-11-15T08:23:34;15.90;66.80
66140;DHT22;52945;51.908;8.364;2022-11-15T08:26:34;16.20;65.50
66140;DHT22;52945;51.908;8.364;2022-11-15T08:29:35;16.40;64.70
66140;DHT22;52945;51.908;8.364;2022-11-15T08:32:36;16.50;64.10
66140;DHT22;52945;51.908;8.364;2022-11-15T08:35:36;16.50;63.40
66140;DHT22;52945;51.908;8.364;2022-11-15T08:38:37;16.70;63.10
66140;DHT22;52945;51.908;8.364;2022-11-15T08:41:38;16.60;62.80
66140;DHT22;52945;51.908;8.364;2022-11-15T08:44:38;16.60;62.80
66140;DHT22;52945;51.908;8.364;2022-11-15T08:47:39;16.60;63.00
66140;DHT22;52945;51.908;8.364;2022-11-15T08:50:40;16.50;63.00
66140;DHT22;52945;51.908;8.364;2022-11-15T08:53:41;16.50;62.90
66140;DHT22;52945;51.908;8.364;2022-11-15T08:56:41;16.40;63.10
66140;DHT22;52945;51.908;8.364;2022-11-15T08:59:42;16.50;63.10
66140;DHT22;52945;51.908;8.364;2022-11-15T09:02:42;16.50;63.10
66140;DHT22;52945;51.908;8.364;2022-11-15T09:05:43;16.50;63.00
66140;DHT22;52945;51.908;8.364;2022-11-15T09:08:44;16.50;63.10
66140;DHT22;52945;51.908;8.364;2022-11-15T09:11:44;16.60;63.10
66140;DHT22;52945;51.908;8.364;2022-11-15T09:14:45;16.60;62.80
66140;DHT22;52945;51.908;8.364;2022-11-15T09:17:45;16.60;62.40
66140;DHT22;52945;51.908;8.364;2022-11-15T09:20:46;16.60;61.50
66140;DHT22;52945;51.908;8.364;2022-11-15T09:23:46;16.70;61.20
66140;DHT22;52945;51.908;8.364;2022-11-15T09:26:50;16.70;60.40
66140;DHT22;52945;51.908;8.364;2022-11-15T09:29:50;16.80;59.90
66140;DHT22;52945;51.908;8.364;2022-11-15T09:32:51;16.90;59.60
66140;DHT22;52945;51.908;8.364;2022-11-15T09:35:52;17.00;59.20
66140;DHT22;52945;51.908;8.364;2022-11-15T09:38:53;17.00;59.10
66140;DHT22;52945;51.908;8.364;2022-11-15T09:42:44;17.10;58.70
66140;DHT22;52945;51.908;8.364;2022-11-15T09:45:49;17.10;58.70
66140;DHT22;52945;51.908;8.364;2022-11-15T09:48:56;17.10;57.90
66140;DHT22;52945;51.908;8.364;2022-11-15T09:51:58;17.10;57.80
66140;DHT22;52945;51.908;8.364;2022-11-15T09:54:59;17.10;57.70
66140;DHT22;52945;51.908;8.364;2022-11-15T09:58:22;17.10;57.00
66140;DHT22;52945;51.908;8.364;2022-11-15T10:04:37;17.20;56.30
66140;DHT22;52945;51.908;8.364;2022-11-15T10:08:10;17.10;56.40
66140;DHT22;52945;51.908;8.364;2022-11-15T10:11:23;17.20;55.60
66140;DHT22;52945;51.908;8.364;2022-11-15T10:14:26;17.20;55.30
66140;DHT22;52945;51.908;8.364;2022-11-15T10:20:49;17.30;54.70
66140;DHT22;52945;51.908;8.364;2022-11-15T10:23:50;17.40;54.40
66140;DHT22;52945;51.908;8.364;2022-11-15T10:26:55;17.40;53.20
66140;DHT22;52945;51.908;8.364;2022-11-15T10:29:56;17.50;53.10
66140;DHT22;52945;51.908;8.364;2022-11-15T10:32:56;17.60;53.40
66140;DHT22;52945;51.908;8.364;2022-11-15T10:39:12;17.70;53.10
66140;DHT22;52945;51.908;8.364;2022-11-15T10:42:26;17.60;52.80
66140;DHT22;52945;51.908;8.364;2022-11-15T10:45:28;17.60;52.40
66140;DHT22;52945;51.908;8.364;2022-11-15T10:48:29;17.50;52.70
66140;DHT22;52945;51.908;8.364;2022-11-15T10:51:30;17.50;52.70
66140;DHT22;52945;51.908;8.364;2022-11-15T10:55:01;17.50;52.40
66140;DHT22;52945;51.908;8.364;2022-11-15T11:01:46;17.60;52.00
66140;DHT22;52945;51.908;8.364;2022-11-15T11:04:51;17.60;52.30
66140;DHT22;52945;51.908;8.364;2022-11-15T11:08:02;17.60;52.10
66140;DHT22;52945;51.908;8.364;2022-11-15T11:11:04;17.70;51.60
66140;DHT22;52945;51.908;8.364;2022-11-15T11:14:13;17.70;51.90
66140;DHT22;52945;51.908;8.364;2022-11-15T11:17:32;17.80;51.80
66140;DHT22;52945;51.908;8.364;2022-11-15T11:20:51;17.90;51.10
66140;DHT22;52945;51.908;8.364;2022-11-15T11:24:04;18.00;50.90
66140;DHT22;52945;51.908;8.364;2022-11-15T11:30:43;18.20;51.10
66140;DHT22;52945;51.908;8.364;2022-11-15T11:38:17;18.50;50.10
66140;DHT22;52945;51.908;8.364;2022-11-15T11:51:56;19.50;47.90
66140;DHT22;52945;51.908;8.364;2022-11-15T11:55:16;19.70;47.40
66140;DHT22;52945;51.908;8.364;2022-11-15T11:58:50;19.80;45.80
66140;DHT22;52945;51.908;8.364;2022-11-15T12:01:51;20.00;45.60
66140;DHT22;52945;51.908;8.364;2022-11-15T12:04:53;19.90;45.50
66140;DHT22;52945;51.908;8.364;2022-11-15T12:08:01;20.00;45.10
66140;DHT22;52945;51.908;8.364;2022-11-15T12:11:17;20.00;44.70
66140;DHT22;52945;51.908;8.364;2022-11-15T12:17:42;20.20;43.50
66140;DHT22;52945;51.908;8.364;2022-11-15T12:21:02;20.10;42.90
66140;DHT22;52945;51.908;8.364;2022-11-15T12:24:17;20.00;43.60
66140;DHT22;52945;51.908;8.364;2022-11-15T12:27:35;19.90;44.00
66140;DHT22;52945;51.908;8.364;2022-11-15T12:33:46;20.00;44.30
66140;DHT22;52945;51.908;8.364;2022-11-15T12:36:49;20.00;44.30
66140;DHT22;52945;51.908;8.364;2022-11-15T12:46:23;20.00;43.80
66140;DHT22;52945;51.908;8.364;2022-11-15T12:52:26;19.80;44.30
66140;DHT22;52945;51.908;8.364;2022-11-15T12:55:32;19.70;44.30
66140;DHT22;52945;51.908;8.364;2022-11-15T12:58:46;19.60;44.70
66140;DHT22;52945;51.908;8.364;2022-11-15T13:04:48;19.50;45.20
66140;DHT22;52945;51.908;8.364;2022-11-15T13:10:49;19.20;45.30
66140;DHT22;52945;51.908;8.364;2022-11-15T13:13:50;19.20;45.60
66140;DHT22;52945;51.908;8.364;2022-11-15T13:16:58;19.10;45.60
66140;DHT22;52945;51.908;8.364;2022-11-15T13:23:11;19.00;45.90
66140;DHT22;52945;51.908;8.364;2022-11-15T13:26:14;18.90;45.70
66140;DHT22;52945;51.908;8.364;2022-11-15T13:29:18;18.90;46.00
66140;DHT22;52945;51.908;8.364;2022-11-15T13:32:19;18.90;46.20
66140;DHT22;52945;51.908;8.364;2022-11-15T13:35:25;18.80;45.80
66140;DHT22;52945;51.908;8.364;2022-11-15T13:38:32;18.70;45.60
66140;DHT22;52945;51.908;8.364;2022-11-15T13:41:35;18.70;45.90
66140;DHT22;52945;51.908;8.364;2022-11-15T13:44:36;18.70;46.10
66140;DHT22;52945;51.908;8.364;2022-11-15T13:47:37;18.70;45.70
66140;DHT22;52945;51.908;8.364;2022-11-15T13:50:38;18.70;44.80
66140;DHT22;52945;51.908;8.364;2022-11-15T13:53:44;18.70;44.50
66140;DHT22;52945;51.908;8.364;2022-11-15T13:56:57;18.70;44.40
66140;DHT22;52945;51.908;8.364;2022-11-15T14:00:02;18.70;43.10
66140;DHT22;52945;51.908;8.364;2022-11-15T14:03:07;18.80;43.00
66140;DHT22;52945;51.908;8.364;2022-11-15T14:12:21;18.90;42.60
66140;DHT22;52945;51.908;8.364;2022-11-15T14:15:38;18.90;42.60
66140;DHT22;52945;51.908;8.364;2022-11-15T14:18:52;18.90;42.80
66140;DHT22;52945;51.908;8.364;2022-11-15T14:25:25;18.90;43.20
66140;DHT22;52945;51.908;8.364;2022-11-15T14:31:26;18.90;43.20
66140;DHT22;52945;51.908;8.364;2022-11-15T14:34:27;18.90;43.20
66140;DHT22;52945;51.908;8.364;2022-11-15T14:37:29;18.90;43.10
66140;DHT22;52945;51.908;8.364;2022-11-15T14:40:31;18.90;43.30
66140;DHT22;52945;51.908;8.364;2022-11-15T14:43:32;18.90;43.50
66140;DHT22;52945;51.908;8.364;2022-11-15T14:46:32;18.80;43.40
66140;DHT22;52945;51.908;8.364;2022-11-15T14:49:33;18.70;43.80
66140;DHT22;52945;51.908;8.364;2022-11-15T14:52:33;18.70;43.70
66140;DHT22;52945;51.908;8.364;2022-11-15T14:55:36;18.60;44.40
66140;DHT22;52945;51.908;8.364;2022-11-15T14:58:36;18.60;44.70
66140;DHT22;52945;51.908;8.364;2022-11-15T15:01:37;18.50;45.30
66140;DHT22;52945;51.908;8.364;2022-11-15T15:04:37;18.40;44.70
66140;DHT22;52945;51.908;8.364;2022-11-15T15:07:38;18.30;45.10
66140;DHT22;52945;51.908;8.364;2022-11-15T15:10:45;18.20;45.20
66140;DHT22;52945;51.908;8.364;2022-11-15T15:13:45;18.20;45.40
66140;DHT22;52945;51.908;8.364;2022-11-15T15:16:46;18.10;45.60
66140;DHT22;52945;51.908;8.364;2022-11-15T15:19:47;17.90;45.30
66140;DHT22;52945;51.908;8.364;2022-11-15T15:22:47;17.90;45.10
66140;DHT22;52945;51.908;8.364;2022-11-15T15:25:48;17.80;45.30
66140;DHT22;52945;51.908;8.364;2022-11-15T15:28:53;17.70;45.60
66140;DHT22;52945;51.908;8.364;2022-11-15T15:31:53;17.70;45.70
66140;DHT22;52945;51.908;8.364;2022-11-15T15:34:54;17.60;45.80
66140;DHT22;52945;51.908;8.364;2022-11-15T15:37:54;17.50;46.00
66140;DHT22;52945;51.908;8.364;2022-11-15T15:40:55;17.60;46.30
66140;DHT22;52945;51.908;8.364;2022-11-15T15:43:55;17.50;46.40
66140;DHT22;52945;51.908;8.364;2022-11-15T15:46:56;17.40;46.50
66140;DHT22;52945;51.908;8.364;2022-11-15T15:49:58;17.30;47.40
66140;DHT22;52945;51.908;8.364;2022-11-15T15:53:00;17.20;48.50
66140;DHT22;52945;51.908;8.364;2022-11-15T15:56:01;17.10;49.50
66140;DHT22;52945;51.908;8.364;2022-11-15T15:59:01;17.00;49.90
66140;DHT22;52945;51.908;8.364;2022-11-15T16:02:02;17.10;50.30
66140;DHT22;52945;51.908;8.364;2022-11-15T16:05:03;17.00;50.70
66140;DHT22;52945;51.908;8.364;2022-11-15T16:08:03;16.90;51.20
66140;DHT22;52945;51.908;8.364;2022-11-15T16:11:04;16.90;51.70
66140;DHT22;52945;51.908;8.364;2022-11-15T16:14:06;16.70;52.30
66140;DHT22;52945;51.908;8.364;2022-11-15T16:17:17;16.70;52.40
66140;DHT22;52945;51.908;8.364;2022-11-15T16:20:40;16.70;52.80
66140;DHT22;52945;51.908;8.364;2022-11-15T16:23:42;16.60;53.40
66140;DHT22;52945;51.908;8.364;2022-11-15T16:26:43;16.60;53.50
66140;DHT22;52945;51.908;8.364;2022-11-15T16:29:44;16.50;54.00
66140;DHT22;52945;51.908;8.364;2022-11-15T16:32:45;16.50;54.10
66140;DHT22;52945;51.908;8.364;2022-11-15T16:35:46;16.40;54.20
66140;DHT22;52945;51.908;8.364;2022-11-15T16:38:48;16.50;54.40
66140;DHT22;52945;51.908;8.364;2022-11-15T16:41:49;16.30;55.00
66140;DHT22;52945;51.908;8.364;2022-11-15T16:44:49;16.20;55.20
66140;DHT22;52945;51.908;8.364;2022-11-15T16:47:50;16.20;55.50
66140;DHT22;52945;51.908;8.364;2022-11-15T16:50:58;16.20;55.90
66140;DHT22;52945;51.908;8.364;2022-11-15T16:53:59;16.10;56.40
66140;DHT22;52945;51.908;8.364;2022-11-15T16:56:59;16.00;56.80
66140;DHT22;52945;51.908;8.364;2022-11-15T17:00:00;16.00;56.90
66140;DHT22;52945;51.908;8.364;2022-11-15T17:03:01;16.00;57.20
66140;DHT22;52945;51.908;8.364;2022-11-15T17:06:02;16.00;57.30
66140;DHT22;52945;51.908;8.364;2022-11-15T17:09:03;16.00;57.40
66140;DHT22;52945;51.908;8.364;2022-11-15T17:12:04;16.00;57.60
66140;DHT22;52945;51.908;8.364;2022-11-15T17:15:05;16.00;57.70
66140;DHT22;52945;51.908;8.364;2022-11-15T17:18:07;15.90;58.10
66140;DHT22;52945;51.908;8.364;2022-11-15T17:21:13;15.90;58.20
66140;DHT22;52945;51.908;8.364;2022-11-15T17:24:14;15.90;58.40
66140;DHT22;52945;51.908;8.364;2022-11-15T17:27:15;15.90;58.50
66140;DHT22;52945;51.908;8.364;2022-11-15T17:30:15;15.90;58.60
66140;DHT22;52945;51.908;8.364;2022-11-15T17:33:17;15.90;58.70
66140;DHT22;52945;51.908;8.364;2022-11-15T17:36:18;15.90;59.10
66140;DHT22;52945;51.908;8.364;2022-11-15T17:39:19;15.90;59.30
66140;DHT22;52945;51.908;8.364;2022-11-15T17:42:20;15.80;59.50
66140;DHT22;52945;51.908;8.364;2022-11-15T17:45:20;15.80;59.90
66140;DHT22;52945;51.908;8.364;2022-11-15T17:48:21;15.80;60.00
66140;DHT22;52945;51.908;8.364;2022-11-15T17:51:21;15.80;60.00
66140;DHT22;52945;51.908;8.364;2022-11-15T17:54:23;15.90;60.20
66140;DHT22;52945;51.908;8.364;2022-11-15T17:57:23;15.80;60.50
66140;DHT22;52945;51.908;8.364;2022-11-15T18:00:24;15.80;60.70
66140;DHT22;52945;51.908;8.364;2022-11-15T18:03:24;15.80;60.90
66140;DHT22;52945;51.908;8.364;2022-11-15T18:06:26;15.80;61.10
66140;DHT22;52945;51.908;8.364;2022-11-15T18:09:27;15.80;61.00
66140;DHT22;52945;51.908;8.364;2022-11-15T18:12:28;15.90;61.00
66140;DHT22;52945;51.908;8.364;2022-11-15T18:15:29;15.90;60.80
66140;DHT22;52945;51.908;8.364;2022-11-15T18:18:31;15.90;60.90
66140;DHT22;52945;51.908;8.364;2022-11-15T18:21:32;15.80;61.20
66140;DHT22;52945;51.908;8.364;2022-11-15T18:24:34;15.80;61.40
66140;DHT22;52945;51.908;8.364;2022-11-15T18:27:36;15.90;61.10
66140;DHT22;52945;51.908;8.364;2022-11-15T18:30:37;16.00;61.20
66140;DHT22;52945;51.908;8.364;2022-11-15T18:33:38;15.90;61.30
66140;DHT22;52945;51.908;8.364;2022-11-15T18:36:39;16.00;61.10
66140;DHT22;52945;51.908;8.364;2022-11-15T18:39:40;15.90;61.10
66140;DHT22;52945;51.908;8.364;2022-11-15T18:42:41;15.90;61.20
66140;DHT22;52945;51.908;8.364;2022-11-15T18:45:41;15.90;61.10
66140;DHT22;52945;51.908;8.364;2022-11-15T18:48:43;15.90;61.10
66140;DHT22;52945;51.908;8.364;2022-11-15T18:51:44;15.90;61.10
66140;DHT22;52945;51.908;8.364;2022-11-15T18:54:45;16.00;61.10
66140;DHT22;52945;51.908;8.364;2022-11-15T18:57:45;16.00;61.10
66140;DHT22;52945;51.908;8.364;2022-11-15T19:00:46;15.90;61.10
66140;DHT22;52945;51.908;8.364;2022-11-15T19:03:49;15.90;61.10
66140;DHT22;52945;51.908;8.364;2022-11-15T19:06:50;15.90;61.10
66140;DHT22;52945;51.908;8.364;2022-11-15T19:09:52;15.90;61.20
66140;DHT22;52945;51.908;8.364;2022-11-15T19:12:53;15.90;61.20
66140;DHT22;52945;51.908;8.364;2022-11-15T19:16:01;15.90;61.20
66140;DHT22;52945;51.908;8.364;2022-11-15T19:19:09;15.90;61.30
66140;DHT22;52945;51.908;8.364;2022-11-15T19:22:09;15.90;61.20
66140;DHT22;52945;51.908;8.364;2022-11-15T19:25:10;16.00;61.10
66140;DHT22;52945;51.908;8.364;2022-11-15T19:28:11;16.00;61.10
66140;DHT22;52945;51.908;8.364;2022-11-15T19:31:12;16.00;61.10
66140;DHT22;52945;51.908;8.364;2022-11-15T19:34:13;15.90;61.20
66140;DHT22;52945;51.908;8.364;2022-11-15T19:37:14;15.90;61.20
66140;DHT22;52945;51.908;8.364;2022-11-15T19:40:14;16.00;61.30
66140;DHT22;52945;51.908;8.364;2022-11-15T19:43:15;16.00;61.30
66140;DHT22;52945;51.908;8.364;2022-11-15T19:46:17;15.90;61.40
66140;DHT22;52945;51.908;8.364;2022-11-15T19:49:19;15.90;61.50
66140;DHT22;52945;51.908;8.364;2022-11-15T19:52:21;15.90;61.50
66140;DHT22;52945;51.908;8.364;2022-11-15T19:55:23;15.90;61.60
66140;DHT22;52945;51.908;8.364;2022-11-15T19:58:24;15.90;61.70
66140;DHT22;52945;51.908;8.364;2022-11-15T20:01:29;15.90;61.70
66140;DHT22;52945;51.908;8.364;2022-11-15T20:04:30;15.80;61.80
66140;DHT22;52945;51.908;8.364;2022-11-15T20:07:31;15.80;61.70
66140;DHT22;52945;51.908;8.364;2022-11-15T20:10:32;15.90;61.80
66140;DHT22;52945;51.908;8.364;2022-11-15T20:13:33;15.80;61.80
66140;DHT22;52945;51.908;8.364;2022-11-15T20:16:34;15.80;61.90
66140;DHT22;52945;51.908;8.364;2022-11-15T20:19:34;15.80;61.80
66140;DHT22;52945;51.908;8.364;2022-11-15T20:22:35;15.80;61.80
66140;DHT22;52945;51.908;8.364;2022-11-15T20:25:36;15.80;61.60
66140;DHT22;52945;51.908;8.364;2022-11-15T20:28:39;15.80;61.70
66140;DHT22;52945;51.908;8.364;2022-11-15T20:31:40;15.80;61.80
66140;DHT22;52945;51.908;8.364;2022-11-15T20:34:40;15.70;61.80
66140;DHT22;52945;51.908;8.364;2022-11-15T20:37:41;15.70;61.70
66140;DHT22;52945;51.908;8.364;2022-11-15T20:40:44;15.70;61.70
66140;DHT22;52945;51.908;8.364;2022-11-15T20:43:45;15.70;61.70
66140;DHT22;52945;51.908;8.364;2022-11-15T20:46:45;15.70;61.90
66140;DHT22;52945;51.908;8.364;2022-11-15T20:49:46;15.70;61.90